Konduz Airport

Jump to: basic info | weather | frequencies | runways | comments

Related pages: nearby airports | nearby navaids | notams | map

Basic information (top)

Codes: UND OAUZ
Location: lon 36.665100, lat 68.910797, elev 1,457 ft / 444 m msl
Status: medium_airport
Scheduled airline service: no
Links: Wikipedia Mobile

Weather (top)

Current conditions (rec'd 2013/10/13 09:50Z):

OAUZ 130950Z 36007KT 9999 FEW150 24/02 Q1016 BLU/

Airport forecast (rec'd 2013/10/13 06:00Z):

TAF OAUZ 130505Z 1306/1406 17005KT 9999 NSW FEW100 SCT150 
      BECMG 1307/1309 35005KT 9999 NSW FEW080 BY OAMS

Frequencies (top)

Verify before use: may be inaccurate or out of date.

INFO: 130.35 MHz (INFO)

Runways (top)

11/29: 6,558 x 148 ft (1,999 x 45 m) — paved — not lighted

Latest comments (top)

No comments yet for Konduz Airport

More... (top)

See also NOTAMs and nearby airports and navaids, or visit the Konduz Airport page at the main OurAirports website..